createdAt,value
2022-09-26T00:00:48.050Z,8.09
2022-09-26T00:01:48.116Z,8.18
2022-09-26T00:02:48.087Z,8.25
2022-09-26T00:03:47.953Z,8.31
2022-09-26T00:04:47.997Z,8.43
2022-09-26T00:05:47.967Z,8.52
2022-09-26T00:06:47.982Z,8.52
2022-09-26T00:07:47.941Z,8.54
2022-09-26T00:08:47.961Z,8.55
2022-09-26T00:09:47.933Z,8.27
2022-09-26T00:10:47.957Z,7.94
2022-09-26T00:11:47.946Z,7.79
2022-09-26T00:12:47.915Z,7.58
2022-09-26T00:13:47.924Z,7.50
2022-09-26T00:14:47.892Z,7.23
2022-09-26T00:15:47.941Z,7.26
2022-09-26T00:16:47.965Z,7.16
2022-09-26T00:17:47.885Z,7.11
2022-09-26T00:18:47.884Z,6.97
2022-09-26T00:19:47.965Z,7.04
2022-09-26T00:20:47.903Z,6.96
2022-09-26T00:21:47.936Z,6.86
2022-09-26T00:22:47.872Z,6.81
2022-09-26T00:23:47.856Z,6.76
2022-09-26T00:24:47.909Z,6.81
2022-09-26T00:25:47.865Z,6.75
2022-09-26T00:26:47.881Z,6.94
2022-09-26T00:27:48.841Z,7.12
2022-09-26T00:28:47.831Z,7.21
2022-09-26T00:29:47.844Z,7.34
2022-09-26T00:30:47.864Z,7.42
2022-09-26T00:31:47.893Z,7.69
2022-09-26T00:32:47.821Z,7.77
2022-09-26T00:33:47.798Z,7.86
2022-09-26T00:34:48.798Z,7.92
2022-09-26T00:35:47.806Z,8.10
2022-09-26T00:36:47.821Z,8.18
2022-09-26T00:37:47.787Z,8.12
2022-09-26T00:38:47.781Z,8.25
2022-09-26T00:39:47.781Z,8.24
2022-09-26T00:40:47.803Z,8.25
2022-09-26T00:41:47.774Z,8.24
2022-09-26T00:42:47.766Z,8.27
2022-09-26T00:43:47.775Z,8.22
2022-09-26T00:44:47.753Z,8.17
2022-09-26T00:45:47.828Z,8.22
2022-09-26T00:46:47.762Z,8.17
2022-09-26T00:47:47.779Z,8.10
2022-09-26T00:48:47.745Z,8.09
2022-09-26T00:49:47.739Z,8.12
2022-09-26T00:50:47.726Z,8.18
2022-09-26T00:51:47.729Z,8.17
2022-09-26T00:52:47.769Z,8.14
2022-09-26T00:53:47.713Z,8.10
2022-09-26T00:54:47.703Z,8.02
2022-09-26T00:55:47.718Z,7.84
2022-09-26T00:56:47.693Z,7.74
2022-09-26T00:57:47.717Z,7.74
2022-09-26T00:58:47.694Z,7.77
2022-09-26T00:59:47.684Z,7.81
2022-09-26T01:00:47.715Z,7.81
2022-09-26T01:01:47.800Z,7.71
2022-09-26T01:02:47.737Z,7.74
2022-09-26T01:03:47.691Z,7.79
2022-09-26T01:04:47.662Z,7.85
2022-09-26T01:05:47.685Z,7.94
2022-09-26T01:06:47.644Z,8.00
2022-09-26T01:07:47.653Z,7.95
2022-09-26T01:08:47.673Z,8.07
2022-09-26T01:09:47.658Z,8.04
2022-09-26T01:10:47.657Z,8.06
2022-09-26T01:11:48.573Z,8.07
2022-09-26T01:12:47.621Z,8.12
2022-09-26T01:13:47.608Z,8.18
2022-09-26T01:14:47.702Z,8.17
2022-09-26T01:15:47.589Z,7.92
2022-09-26T01:16:47.650Z,7.62
2022-09-26T01:17:47.572Z,7.45
2022-09-26T01:18:47.595Z,7.29
2022-09-26T01:19:47.590Z,7.23
2022-09-26T01:20:47.617Z,7.29
2022-09-26T01:21:47.586Z,7.45
2022-09-26T01:22:47.567Z,7.44
2022-09-26T01:23:47.568Z,7.74
2022-09-26T01:24:47.578Z,7.82
2022-09-26T01:25:47.592Z,7.92
2022-09-26T01:26:47.563Z,7.96
2022-09-26T01:27:47.541Z,7.96
2022-09-26T01:28:47.683Z,8.12
2022-09-26T01:29:47.515Z,8.14
2022-09-26T01:30:47.567Z,8.18
2022-09-26T01:31:47.492Z,8.17
2022-09-26T01:32:47.542Z,8.24
2022-09-26T01:33:47.497Z,8.14
2022-09-26T01:34:48.519Z,8.25
2022-09-26T01:35:47.499Z,8.27
2022-09-26T01:36:47.495Z,8.31
2022-09-26T01:37:47.509Z,8.40
2022-09-26T01:38:47.484Z,8.42
2022-09-26T01:39:47.470Z,8.43
2022-09-26T01:40:47.523Z,8.40
2022-09-26T01:41:47.476Z,8.45
2022-09-26T01:42:47.496Z,8.40
2022-09-26T01:43:47.464Z,8.47
2022-09-26T01:44:47.429Z,8.39
2022-09-26T01:45:47.470Z,8.22
2022-09-26T01:46:47.461Z,8.31
2022-09-26T01:47:47.445Z,8.36
2022-09-26T01:48:47.416Z,8.43
2022-09-26T01:49:47.439Z,8.42
2022-09-26T01:50:47.402Z,8.47
2022-09-26T01:51:47.412Z,8.46
2022-09-26T01:52:47.397Z,8.17
2022-09-26T01:53:47.385Z,8.20
2022-09-26T01:54:47.575Z,7.89
2022-09-26T01:55:47.392Z,7.82
2022-09-26T01:56:47.376Z,7.79
2022-09-26T01:57:47.389Z,7.71
2022-09-26T01:58:47.379Z,7.73
2022-09-26T01:59:47.400Z,7.94
2022-09-26T02:00:47.377Z,8.07
2022-09-26T02:01:47.421Z,8.02
2022-09-26T02:02:47.390Z,7.94
2022-09-26T02:03:47.338Z,8.10
2022-09-26T02:04:47.366Z,7.99
2022-09-26T02:05:47.332Z,8.09
2022-09-26T02:06:47.313Z,7.99
2022-09-26T02:07:47.300Z,8.03
2022-09-26T02:08:48.311Z,7.84
2022-09-26T02:09:47.304Z,7.82
2022-09-26T02:10:47.328Z,8.00
2022-09-26T02:11:47.327Z,7.94
2022-09-26T02:12:47.375Z,8.12
2022-09-26T02:13:47.397Z,8.07
2022-09-26T02:14:47.291Z,7.96
2022-09-26T02:15:47.340Z,8.09
2022-09-26T02:16:47.456Z,8.12
2022-09-26T02:17:47.268Z,8.00
2022-09-26T02:18:47.247Z,7.73
2022-09-26T02:19:47.246Z,7.57
2022-09-26T02:20:47.250Z,7.52
2022-09-26T02:21:47.265Z,7.52
2022-09-26T02:22:47.240Z,7.52
2022-09-26T02:23:47.235Z,7.23
2022-09-26T02:24:47.252Z,7.21
2022-09-26T02:25:47.245Z,7.23
2022-09-26T02:26:47.244Z,7.29
2022-09-26T02:27:47.251Z,7.26
2022-09-26T02:28:47.216Z,7.16
2022-09-26T02:29:47.209Z,7.15
2022-09-26T02:30:47.202Z,7.16
2022-09-26T02:31:47.283Z,7.14
2022-09-26T02:32:47.250Z,7.15
2022-09-26T02:33:47.220Z,7.23
2022-09-26T02:34:47.200Z,7.18
2022-09-26T02:35:47.185Z,7.23
2022-09-26T02:36:47.181Z,7.45
2022-09-26T02:37:47.198Z,7.47
2022-09-26T02:38:47.209Z,7.44
2022-09-26T02:39:47.157Z,7.39
2022-09-26T02:40:47.237Z,7.23
2022-09-26T02:41:47.154Z,7.34
2022-09-26T02:42:47.135Z,7.41
2022-09-26T02:43:47.134Z,7.30
2022-09-26T02:44:47.139Z,7.27
2022-09-26T02:45:47.246Z,7.23
2022-09-26T02:46:47.142Z,7.15
2022-09-26T02:47:47.161Z,7.23
2022-09-26T02:48:47.175Z,7.14
2022-09-26T02:49:47.105Z,7.27
2022-09-26T02:50:47.171Z,7.21
2022-09-26T02:51:47.112Z,7.27
2022-09-26T02:52:47.116Z,7.27
2022-09-26T02:53:47.126Z,7.24
2022-09-26T02:54:47.085Z,7.18
2022-09-26T02:55:47.092Z,7.11
2022-09-26T02:56:47.084Z,7.08
2022-09-26T02:57:47.105Z,7.14
2022-09-26T02:58:47.065Z,7.12
2022-09-26T02:59:47.059Z,7.14
2022-09-26T03:00:47.134Z,7.04
2022-09-26T03:01:47.039Z,6.97
2022-09-26T03:02:47.083Z,6.99
2022-09-26T03:03:47.098Z,6.96
2022-09-26T03:04:47.080Z,7.04
2022-09-26T03:05:47.020Z,7.04
2022-09-26T03:06:47.120Z,7.08
2022-09-26T03:07:47.038Z,7.12
2022-09-26T03:08:47.019Z,7.14
2022-09-26T03:09:46.999Z,7.15
2022-09-26T03:10:47.005Z,7.12
2022-09-26T03:11:47.020Z,7.15
2022-09-26T03:12:47.016Z,7.14
2022-09-26T03:13:47.007Z,7.12
2022-09-26T03:14:46.979Z,7.18
2022-09-26T03:15:46.981Z,7.05
2022-09-26T03:16:47.021Z,7.16
2022-09-26T03:17:46.965Z,7.15
2022-09-26T03:18:46.971Z,7.18
2022-09-26T03:19:46.958Z,7.18
2022-09-26T03:20:46.950Z,7.27
2022-09-26T03:21:46.938Z,7.18
2022-09-26T03:22:46.954Z,7.26
2022-09-26T03:23:46.945Z,7.19
2022-09-26T03:24:46.979Z,7.24
2022-09-26T03:25:46.939Z,7.27
2022-09-26T03:26:46.925Z,7.32
2022-09-26T03:27:46.902Z,7.42
2022-09-26T03:28:46.918Z,7.41
2022-09-26T03:29:46.938Z,7.44
2022-09-26T03:30:46.911Z,7.52
2022-09-26T03:31:46.963Z,7.58
2022-09-26T03:32:46.877Z,7.39
2022-09-26T03:33:46.881Z,7.60
2022-09-26T03:34:46.898Z,7.60
2022-09-26T03:35:46.862Z,7.67
2022-09-26T03:36:46.862Z,7.71
2022-09-26T03:37:46.875Z,7.74
2022-09-26T03:38:46.882Z,7.74
2022-09-26T03:39:46.872Z,7.73
2022-09-26T03:40:46.906Z,7.77
2022-09-26T03:41:46.875Z,7.84
2022-09-26T03:42:46.849Z,7.69
2022-09-26T03:43:46.834Z,7.60
2022-09-26T03:44:46.833Z,7.69
2022-09-26T03:45:46.880Z,7.60
2022-09-26T03:46:46.845Z,7.47
2022-09-26T03:47:46.815Z,7.50
2022-09-26T03:48:46.803Z,7.37
2022-09-26T03:49:46.826Z,7.44
2022-09-26T03:50:46.831Z,7.45
2022-09-26T03:51:46.798Z,7.48
2022-09-26T03:52:46.819Z,7.29
2022-09-26T03:53:46.819Z,7.44
2022-09-26T03:54:46.771Z,7.50
2022-09-26T03:55:46.778Z,7.70
2022-09-26T03:56:46.793Z,7.70
2022-09-26T03:57:46.789Z,7.57
2022-09-26T03:58:46.760Z,7.54
2022-09-26T03:59:46.750Z,7.57
2022-09-26T04:00:46.815Z,7.57
2022-09-26T04:01:46.779Z,7.54
2022-09-26T04:02:46.776Z,7.63
2022-09-26T04:03:50.581Z,7.47
2022-09-26T04:04:47.733Z,7.48
2022-09-26T04:05:46.733Z,7.57
2022-09-26T04:06:46.745Z,7.62
2022-09-26T04:07:46.708Z,7.63
2022-09-26T04:08:46.717Z,7.58
2022-09-26T04:09:46.713Z,7.66
2022-09-26T04:10:46.702Z,7.73
2022-09-26T04:11:46.707Z,7.71
2022-09-26T04:12:46.696Z,7.55
2022-09-26T04:13:52.009Z,7.67
2022-09-26T04:14:48.754Z,7.76
2022-09-26T04:15:46.689Z,7.74
2022-09-26T04:16:46.758Z,7.77
2022-09-26T04:17:46.661Z,7.70
2022-09-26T04:18:46.656Z,7.67
2022-09-26T04:19:46.678Z,7.63
2022-09-26T04:20:46.704Z,7.50
2022-09-26T04:21:46.664Z,7.44
2022-09-26T04:22:46.645Z,7.55
2022-09-26T04:23:46.632Z,7.48
2022-09-26T04:24:46.670Z,7.58
2022-09-26T04:25:46.643Z,7.66
2022-09-26T04:26:46.711Z,7.70
2022-09-26T04:27:46.622Z,7.81
2022-09-26T04:28:46.622Z,7.73
2022-09-26T04:29:46.660Z,7.88
2022-09-26T04:30:46.618Z,7.79
2022-09-26T04:31:46.732Z,7.82
2022-09-26T04:32:46.616Z,7.82
2022-09-26T04:33:46.620Z,7.96
2022-09-26T04:34:46.609Z,7.91
2022-09-26T04:35:46.593Z,7.81
2022-09-26T04:36:47.616Z,7.74
2022-09-26T04:37:46.652Z,7.88
2022-09-26T04:38:46.584Z,8.00
2022-09-26T04:39:46.582Z,8.03
2022-09-26T04:40:46.616Z,8.00
2022-09-26T04:41:46.583Z,8.09
2022-09-26T04:42:46.624Z,8.17
2022-09-26T04:43:46.577Z,8.17
2022-09-26T04:44:46.629Z,8.20
2022-09-26T04:45:47.440Z,8.17
2022-09-26T04:46:46.540Z,8.09
2022-09-26T04:47:46.580Z,8.14
2022-09-26T04:48:46.551Z,8.20
2022-09-26T04:49:46.544Z,8.27
2022-09-26T04:50:46.512Z,8.32
2022-09-26T04:51:46.527Z,8.24
2022-09-26T04:52:46.498Z,8.14
2022-09-26T04:53:46.556Z,8.12
2022-09-26T04:54:46.500Z,8.14
2022-09-26T04:55:46.506Z,8.10
2022-09-26T04:56:46.500Z,8.20
2022-09-26T04:57:46.486Z,8.24
2022-09-26T04:58:46.527Z,8.42
2022-09-26T04:59:46.543Z,8.27
2022-09-26T05:00:46.525Z,8.06
2022-09-26T05:01:46.584Z,8.12
2022-09-26T05:02:46.481Z,8.13
2022-09-26T05:03:46.497Z,8.07
2022-09-26T05:04:46.480Z,8.14
2022-09-26T05:05:46.485Z,8.14
2022-09-26T05:06:46.626Z,8.22
2022-09-26T05:07:46.431Z,8.21
2022-09-26T05:08:46.564Z,8.29
2022-09-26T05:09:46.441Z,8.34
2022-09-26T05:10:46.476Z,8.42
2022-09-26T05:11:46.418Z,8.29
2022-09-26T05:12:46.411Z,8.39
2022-09-26T05:13:50.093Z,8.39
2022-09-26T05:14:47.392Z,8.49
2022-09-26T05:15:46.465Z,8.45
2022-09-26T05:16:46.470Z,8.60
2022-09-26T05:17:46.391Z,8.73
2022-09-26T05:18:46.378Z,8.71
2022-09-26T05:19:46.403Z,8.75
2022-09-26T05:20:46.442Z,8.80
2022-09-26T05:21:46.379Z,8.86
2022-09-26T05:22:46.391Z,8.75
2022-09-26T05:23:46.373Z,8.86
2022-09-26T05:24:46.344Z,8.82
2022-09-26T05:25:46.371Z,8.93
2022-09-26T05:26:46.355Z,8.93
2022-09-26T05:27:46.360Z,8.93
2022-09-26T05:28:46.321Z,8.70
2022-09-26T05:29:46.341Z,8.64
2022-09-26T05:30:46.351Z,8.68
2022-09-26T05:31:46.398Z,8.78
2022-09-26T05:32:46.312Z,8.86
2022-09-26T05:33:46.377Z,8.94
2022-09-26T05:34:46.321Z,8.85
2022-09-26T05:35:46.340Z,8.96
2022-09-26T05:36:46.301Z,8.96
2022-09-26T05:37:46.291Z,9.03
2022-09-26T05:38:46.432Z,8.94
2022-09-26T05:39:46.307Z,8.88
2022-09-26T05:40:46.317Z,8.89
2022-09-26T05:41:46.308Z,8.86
2022-09-26T05:42:46.284Z,8.89
2022-09-26T05:43:46.330Z,8.94
2022-09-26T05:44:46.283Z,8.88
2022-09-26T05:45:46.406Z,8.94
2022-09-26T05:46:46.371Z,8.98
2022-09-26T05:47:46.253Z,8.91
2022-09-26T05:48:46.251Z,9.00
2022-09-26T05:49:46.257Z,8.98
2022-09-26T05:50:46.247Z,9.08
2022-09-26T05:51:46.244Z,9.08
2022-09-26T05:52:46.208Z,9.15
2022-09-26T05:53:46.283Z,9.17
2022-09-26T05:54:46.270Z,9.20
2022-09-26T05:55:46.322Z,9.22
2022-09-26T05:56:46.211Z,9.15
2022-09-26T05:57:46.185Z,9.22
2022-09-26T05:58:46.191Z,9.19
2022-09-26T05:59:46.197Z,9.17
2022-09-26T06:00:46.271Z,9.24
2022-09-26T06:01:47.143Z,9.06
2022-09-26T06:02:46.215Z,9.12
2022-09-26T06:03:46.184Z,9.06
2022-09-26T06:04:46.149Z,9.26
2022-09-26T06:05:46.155Z,9.24
2022-09-26T06:06:46.170Z,9.24
2022-09-26T06:07:46.186Z,9.35
2022-09-26T06:08:46.115Z,9.44
2022-09-26T06:09:46.185Z,9.56
2022-09-26T06:10:46.120Z,9.50
2022-09-26T06:11:46.124Z,9.60
2022-09-26T06:12:50.727Z,9.56
2022-09-26T06:13:48.128Z,9.71
2022-09-26T06:14:46.144Z,9.78
2022-09-26T06:15:46.135Z,9.78
2022-09-26T06:16:46.183Z,9.81
2022-09-26T06:17:46.120Z,9.85
2022-09-26T06:18:46.129Z,9.80
2022-09-26T06:19:46.140Z,9.91
2022-09-26T06:20:46.070Z,9.86
2022-09-26T06:21:46.091Z,9.96
2022-09-26T06:22:46.147Z,9.88
2022-09-26T06:23:46.117Z,9.96
2022-09-26T06:24:46.094Z,9.86
2022-09-26T06:25:46.064Z,10.01
2022-09-26T06:26:46.053Z,9.91
2022-09-26T06:27:46.099Z,9.92
2022-09-26T06:28:46.088Z,10.02
2022-09-26T06:29:46.054Z,10.06
2022-09-26T06:30:46.072Z,10.01
2022-09-26T06:31:46.142Z,10.14
2022-09-26T06:32:46.023Z,10.11
2022-09-26T06:33:46.064Z,10.04
2022-09-26T06:34:46.105Z,10.16
2022-09-26T06:35:46.020Z,10.13
2022-09-26T06:36:46.021Z,10.10
2022-09-26T06:37:46.022Z,10.10
2022-09-26T06:38:46.051Z,10.07
2022-09-26T06:39:46.056Z,10.20
2022-09-26T06:40:46.057Z,10.14
2022-09-26T06:41:45.976Z,10.22
2022-09-26T06:42:46.043Z,10.24
2022-09-26T06:43:45.971Z,10.22
2022-09-26T06:44:47.002Z,10.22
2022-09-26T06:45:45.992Z,10.31
2022-09-26T06:46:45.986Z,10.32
2022-09-26T06:47:46.023Z,10.46
2022-09-26T06:48:45.961Z,10.46
2022-09-26T06:49:45.958Z,10.46
2022-09-26T06:50:45.980Z,10.52
2022-09-26T06:51:46.967Z,10.57
2022-09-26T06:52:45.948Z,10.60
2022-09-26T06:53:46.003Z,10.70
2022-09-26T06:54:45.935Z,10.58
2022-09-26T06:55:45.935Z,10.75
2022-09-26T06:56:45.937Z,10.75
2022-09-26T06:57:47.109Z,10.83
2022-09-26T06:58:45.898Z,10.80
2022-09-26T06:59:45.889Z,10.84
2022-09-26T07:00:46.030Z,10.78
2022-09-26T07:01:45.965Z,10.93
2022-09-26T07:02:45.876Z,10.80
2022-09-26T07:03:46.264Z,10.86
2022-09-26T07:04:45.882Z,10.93
2022-09-26T07:05:45.884Z,10.90
2022-09-26T07:06:45.913Z,11.01
2022-09-26T07:07:45.932Z,10.91
2022-09-26T07:09:03.881Z,10.95
2022-09-26T07:09:47.849Z,11.03
2022-09-26T07:10:45.835Z,11.12
2022-09-26T07:12:12.863Z,11.03
2022-09-26T07:12:47.861Z,10.94
2022-09-26T07:13:45.837Z,11.02
2022-09-26T07:14:48.872Z,11.05
2022-09-26T07:15:46.874Z,11.21
2022-09-26T07:16:45.810Z,11.12
2022-09-26T07:17:45.794Z,11.16
2022-09-26T07:18:45.801Z,11.27
2022-09-26T07:19:45.907Z,11.31
2022-09-26T07:20:45.760Z,11.44
2022-09-26T07:21:45.770Z,11.49
2022-09-26T07:22:45.794Z,11.49
2022-09-26T07:23:45.780Z,11.57
2022-09-26T07:24:45.841Z,11.60
2022-09-26T07:25:45.843Z,11.54
2022-09-26T07:26:45.940Z,11.59
2022-09-26T07:27:45.842Z,11.48
2022-09-26T07:28:47.742Z,11.45
2022-09-26T07:29:46.790Z,11.42
2022-09-26T07:30:45.811Z,11.46
2022-09-26T07:31:45.879Z,11.57
2022-09-26T07:32:45.761Z,11.48
2022-09-26T07:33:45.693Z,11.56
2022-09-26T07:34:45.838Z,11.67
2022-09-26T07:35:45.793Z,11.82
2022-09-26T07:36:45.685Z,11.94
2022-09-26T07:37:45.719Z,12.03
2022-09-26T07:38:45.709Z,12.01
2022-09-26T07:39:47.415Z,12.00
2022-09-26T07:40:45.741Z,12.16
2022-09-26T07:41:46.163Z,12.15
2022-09-26T07:42:58.593Z,12.19
2022-09-26T07:45:47.624Z,12.31
2022-09-26T07:46:45.795Z,12.31
2022-09-26T07:47:45.605Z,12.22
2022-09-26T07:48:45.608Z,12.25
2022-09-26T07:49:45.628Z,12.19
2022-09-26T07:50:45.614Z,12.19
2022-09-26T07:51:45.660Z,12.05
2022-09-26T07:52:45.630Z,11.88
2022-09-26T07:53:45.626Z,11.74
2022-09-26T07:54:45.587Z,11.78
2022-09-26T07:55:45.576Z,11.70
2022-09-26T07:56:45.587Z,11.70
2022-09-26T07:57:45.572Z,11.70
2022-09-26T07:58:45.564Z,11.82
2022-09-26T07:59:45.565Z,11.75
2022-09-26T08:00:45.588Z,11.81
2022-09-26T08:01:45.571Z,11.72
2022-09-26T08:02:45.632Z,11.69
2022-09-26T08:03:45.514Z,11.75
2022-09-26T08:04:45.506Z,11.60
2022-09-26T08:05:45.564Z,11.70
2022-09-26T08:06:45.510Z,11.62
2022-09-26T08:07:45.492Z,11.60
2022-09-26T08:08:46.526Z,11.63
2022-09-26T08:09:45.493Z,11.63
2022-09-26T08:10:45.486Z,11.57
2022-09-26T08:11:45.476Z,11.56
2022-09-26T08:12:45.477Z,11.72
2022-09-26T08:13:45.513Z,11.72
2022-09-26T08:14:45.442Z,11.90
2022-09-26T08:15:45.478Z,11.78
2022-09-26T08:16:45.450Z,11.75
2022-09-26T08:17:45.496Z,11.79
2022-09-26T08:18:45.440Z,11.81
2022-09-26T08:19:45.460Z,11.82
2022-09-26T08:20:45.425Z,11.90
2022-09-26T08:21:45.448Z,11.87
2022-09-26T08:22:45.418Z,12.00
2022-09-26T08:23:45.424Z,12.07
2022-09-26T08:24:45.406Z,12.15
2022-09-26T08:25:45.393Z,12.04
2022-09-26T08:26:45.438Z,12.08
2022-09-26T08:27:45.407Z,12.15
2022-09-26T08:28:45.363Z,12.18
2022-09-26T08:29:45.462Z,12.16
2022-09-26T08:30:45.359Z,12.19
2022-09-26T08:31:45.381Z,12.22
2022-09-26T08:32:45.383Z,12.16
2022-09-26T08:33:45.360Z,12.26
2022-09-26T08:34:45.316Z,12.31
2022-09-26T08:35:45.318Z,12.34
2022-09-26T08:36:45.317Z,12.56
2022-09-26T08:37:45.321Z,12.66
2022-09-26T08:38:45.337Z,12.66
2022-09-26T08:39:45.310Z,12.95
2022-09-26T08:40:45.330Z,13.24
2022-09-26T08:41:45.302Z,13.35
2022-09-26T08:42:45.305Z,13.62
2022-09-26T08:43:45.315Z,13.72
2022-09-26T08:44:45.379Z,13.79
2022-09-26T08:45:47.717Z,13.75
2022-09-26T08:46:46.296Z,13.62
2022-09-26T08:47:45.258Z,13.48
2022-09-26T08:48:45.329Z,13.13
2022-09-26T08:49:45.241Z,13.07
2022-09-26T08:50:45.236Z,12.96
2022-09-26T08:51:45.261Z,12.92
2022-09-26T08:52:45.225Z,13.21
2022-09-26T08:53:45.229Z,13.38
2022-09-26T08:54:45.232Z,13.38
2022-09-26T08:55:45.189Z,13.31
2022-09-26T08:56:45.205Z,13.31
2022-09-26T08:57:45.178Z,13.48
2022-09-26T08:58:45.192Z,13.72
2022-09-26T08:59:45.207Z,13.96
2022-09-26T09:00:45.197Z,14.08
2022-09-26T09:01:45.273Z,14.29
2022-09-26T09:02:45.352Z,14.41
2022-09-26T09:03:45.123Z,14.57
2022-09-26T09:04:46.500Z,14.80
2022-09-26T09:05:45.151Z,14.93
2022-09-26T09:06:45.159Z,15.11
2022-09-26T09:07:45.106Z,15.31
2022-09-26T09:08:45.105Z,15.38
2022-09-26T09:09:45.084Z,15.34
2022-09-26T09:10:45.137Z,15.53
2022-09-26T09:11:48.059Z,15.59
2022-09-26T09:12:46.103Z,15.56
2022-09-26T09:13:45.093Z,15.64
2022-09-26T09:14:45.049Z,15.60
2022-09-26T09:15:45.080Z,15.80
2022-09-26T09:16:45.063Z,15.86
2022-09-26T09:17:45.024Z,15.68
2022-09-26T09:18:45.030Z,15.84
2022-09-26T09:19:45.008Z,15.85
2022-09-26T09:20:45.011Z,15.84
2022-09-26T09:21:45.037Z,15.73
2022-09-26T09:22:45.031Z,15.80
2022-09-26T09:23:44.984Z,15.93
2022-09-26T09:24:44.983Z,15.91
2022-09-26T09:25:44.966Z,15.93
2022-09-26T09:27:54.697Z,15.70
2022-09-26T09:28:47.033Z,15.60
2022-09-26T09:29:49.347Z,15.84
2022-09-26T09:30:45.949Z,15.96
2022-09-26T09:31:44.989Z,15.89
2022-09-26T09:32:44.948Z,15.91
2022-09-26T09:33:44.896Z,15.84
2022-09-26T09:34:44.873Z,15.81
2022-09-26T09:35:44.895Z,15.98
2022-09-26T09:36:44.941Z,15.96
2022-09-26T09:37:44.914Z,16.07
2022-09-26T09:38:44.879Z,15.99
2022-09-26T09:39:44.903Z,15.74
2022-09-26T09:40:45.003Z,15.53
2022-09-26T09:41:44.886Z,15.22
2022-09-26T09:42:44.823Z,15.05
2022-09-26T09:43:44.861Z,14.86
2022-09-26T09:44:46.961Z,14.98
2022-09-26T09:45:45.800Z,14.83
2022-09-26T09:46:44.877Z,14.53
2022-09-26T09:47:44.878Z,14.63
2022-09-26T09:48:44.787Z,14.45
2022-09-26T09:49:44.897Z,14.59
2022-09-26T09:50:44.772Z,14.79
2022-09-26T09:51:44.775Z,14.85
2022-09-26T09:52:44.773Z,14.85
2022-09-26T09:53:44.755Z,14.93
2022-09-26T09:54:44.776Z,14.90
2022-09-26T09:55:44.757Z,15.13
2022-09-26T09:56:44.734Z,15.31
2022-09-26T09:57:44.723Z,15.22
2022-09-26T09:58:44.716Z,15.19
2022-09-26T09:59:44.722Z,15.09
2022-09-26T10:00:49.064Z,15.05
2022-09-26T10:01:46.717Z,14.83
2022-09-26T10:02:44.742Z,14.75
2022-09-26T10:03:44.743Z,14.69
2022-09-26T10:04:44.663Z,14.69
2022-09-26T10:05:44.707Z,14.72
2022-09-26T10:06:47.377Z,14.79
2022-09-26T10:07:44.656Z,14.91
2022-09-26T10:08:44.628Z,15.05
2022-09-26T10:09:44.643Z,15.18
2022-09-26T10:10:44.708Z,15.23
2022-09-26T10:11:47.965Z,15.35
2022-09-26T10:12:45.611Z,15.19
2022-09-26T10:13:44.596Z,15.16
2022-09-26T10:14:44.582Z,15.15
2022-09-26T10:15:44.611Z,15.16
2022-09-26T10:16:44.573Z,15.12
2022-09-26T10:18:00.896Z,15.15
2022-09-26T10:18:46.560Z,15.07
2022-09-26T10:19:44.538Z,15.15
2022-09-26T10:20:44.543Z,15.28
2022-09-26T10:21:44.545Z,15.44
2022-09-26T10:22:44.558Z,15.55
2022-09-26T10:23:44.542Z,15.77
2022-09-26T10:24:44.512Z,15.85
2022-09-26T10:25:44.502Z,15.95
2022-09-26T10:26:44.551Z,16.04
2022-09-26T10:27:44.497Z,16.06
2022-09-26T10:28:44.522Z,16.04
2022-09-26T10:29:44.468Z,15.89
2022-09-26T10:30:44.498Z,15.88
2022-09-26T10:31:44.516Z,15.84
2022-09-26T10:32:44.517Z,15.70
2022-09-26T10:33:44.470Z,15.53
2022-09-26T10:34:44.455Z,15.41
2022-09-26T10:35:44.459Z,15.40
2022-09-26T10:36:44.438Z,15.38
2022-09-26T10:37:44.408Z,15.34
2022-09-26T10:38:44.407Z,15.33
2022-09-26T10:39:44.380Z,15.35
2022-09-26T10:40:44.432Z,15.19
2022-09-26T10:41:44.367Z,15.18
2022-09-26T10:42:44.346Z,15.23
2022-09-26T10:43:44.360Z,15.34
2022-09-26T10:44:44.367Z,15.30
2022-09-26T10:45:44.354Z,15.33
2022-09-26T10:46:44.388Z,15.40
2022-09-26T10:47:44.327Z,15.52
2022-09-26T10:48:44.310Z,15.51
2022-09-26T10:49:44.347Z,15.23
2022-09-26T10:50:44.292Z,15.30
2022-09-26T10:51:44.309Z,15.18
2022-09-26T10:52:44.279Z,15.16
2022-09-26T10:53:44.277Z,15.23
2022-09-26T10:54:44.334Z,15.13
2022-09-26T10:55:44.303Z,15.18
2022-09-26T10:56:44.298Z,14.98
2022-09-26T10:57:45.599Z,15.04
2022-09-26T10:58:44.249Z,14.98
2022-09-26T10:59:44.247Z,14.98
2022-09-26T11:00:44.261Z,14.86
2022-09-26T11:01:44.268Z,14.90
2022-09-26T11:02:44.225Z,14.90
2022-09-26T11:03:44.277Z,14.87
2022-09-26T11:04:44.269Z,14.86
2022-09-26T11:05:44.262Z,14.75
2022-09-26T11:06:44.194Z,14.74
2022-09-26T11:07:44.179Z,14.66
2022-09-26T11:08:44.236Z,14.59
2022-09-26T11:09:44.151Z,14.60
2022-09-26T11:10:44.149Z,14.60
2022-09-26T11:11:44.164Z,14.64
2022-09-26T11:12:44.146Z,14.59
2022-09-26T11:13:44.109Z,14.57
2022-09-26T11:14:44.146Z,14.61
2022-09-26T11:15:44.123Z,14.67
2022-09-26T11:16:44.135Z,14.61
2022-09-26T11:17:44.220Z,14.61
2022-09-26T11:18:44.108Z,14.61
2022-09-26T11:19:44.082Z,14.56
2022-09-26T11:20:44.086Z,14.64
2022-09-26T11:21:44.049Z,14.57
2022-09-26T11:22:45.095Z,14.61
2022-09-26T11:23:44.071Z,14.75
2022-09-26T11:24:44.074Z,14.86
2022-09-26T11:25:44.038Z,14.98
2022-09-26T11:26:44.023Z,15.16
2022-09-26T11:27:44.057Z,15.31
2022-09-26T11:28:43.992Z,15.49
2022-09-26T11:29:43.982Z,15.59
2022-09-26T11:30:44.034Z,15.70
2022-09-26T11:31:44.146Z,15.76
2022-09-26T11:32:43.979Z,15.89
2022-09-26T11:33:43.981Z,15.76
2022-09-26T11:34:43.985Z,15.91
2022-09-26T11:35:43.940Z,15.81
2022-09-26T11:36:44.968Z,15.77
2022-09-26T11:37:43.955Z,15.68
2022-09-26T11:38:43.926Z,15.64
2022-09-26T11:39:43.920Z,15.60
2022-09-26T11:40:44.004Z,15.53
2022-09-26T11:41:43.898Z,15.48
2022-09-26T11:42:43.928Z,15.43
2022-09-26T11:43:43.910Z,15.53
2022-09-26T11:44:43.912Z,15.43
2022-09-26T11:45:47.348Z,15.48
2022-09-26T11:46:44.892Z,15.34
2022-09-26T11:47:43.864Z,15.30
2022-09-26T11:48:43.842Z,15.28
2022-09-26T11:49:44.532Z,15.20
2022-09-26T11:50:43.844Z,15.23
2022-09-26T11:51:43.809Z,15.23
2022-09-26T11:52:48.356Z,15.27
2022-09-26T11:53:45.813Z,15.30
2022-09-26T11:54:43.810Z,15.33
2022-09-26T11:55:43.799Z,15.23
2022-09-26T11:56:43.764Z,15.04
2022-09-26T11:57:44.793Z,15.09
2022-09-26T11:58:43.776Z,14.97
2022-09-26T11:59:43.785Z,15.03
2022-09-26T12:00:43.817Z,14.97
2022-09-26T12:01:43.758Z,15.07
2022-09-26T12:02:43.792Z,14.94
2022-09-26T12:03:43.857Z,15.03
2022-09-26T12:04:43.710Z,14.98
2022-09-26T12:05:43.708Z,14.83
2022-09-26T12:06:43.726Z,15.00
2022-09-26T12:07:43.698Z,15.01
2022-09-26T12:08:43.711Z,15.01
2022-09-26T12:09:43.725Z,14.98
2022-09-26T12:10:43.692Z,15.01
2022-09-26T12:11:43.678Z,14.91
2022-09-26T12:12:43.645Z,14.97
2022-09-26T12:13:43.690Z,14.98
2022-09-26T12:14:43.642Z,14.87
2022-09-26T12:15:43.760Z,14.90
2022-09-26T12:16:43.672Z,14.80
2022-09-26T12:17:43.613Z,14.90
2022-09-26T12:18:43.619Z,14.97
2022-09-26T12:19:43.594Z,14.83
2022-09-26T12:20:43.603Z,14.98
2022-09-26T12:21:43.573Z,14.91
2022-09-26T12:22:43.578Z,15.00
2022-09-26T12:23:43.617Z,15.00
2022-09-26T12:24:43.594Z,14.93
2022-09-26T12:25:43.553Z,14.87
2022-09-26T12:26:43.532Z,14.93
2022-09-26T12:27:43.564Z,14.90
2022-09-26T12:28:43.540Z,14.91
2022-09-26T12:29:43.545Z,14.90
2022-09-26T12:30:43.590Z,14.86
2022-09-26T12:31:43.556Z,14.94
2022-09-26T12:32:43.493Z,14.98
2022-09-26T12:33:43.570Z,14.97
2022-09-26T12:34:43.494Z,14.97
2022-09-26T12:35:43.452Z,14.95
2022-09-26T12:36:43.460Z,14.87
2022-09-26T12:37:43.462Z,14.93
2022-09-26T12:38:43.469Z,14.87
2022-09-26T12:39:43.439Z,14.87
2022-09-26T12:40:43.507Z,14.80
2022-09-26T12:41:43.465Z,14.79
2022-09-26T12:42:43.435Z,14.63
2022-09-26T12:43:43.479Z,14.66
2022-09-26T12:44:43.441Z,14.66
2022-09-26T12:45:43.395Z,14.59
2022-09-26T12:46:43.499Z,14.59
2022-09-26T12:47:43.391Z,14.53
2022-09-26T12:48:43.418Z,14.45
2022-09-26T12:49:43.379Z,14.42
2022-09-26T12:50:43.344Z,14.42
2022-09-26T12:51:43.383Z,14.41
2022-09-26T12:52:43.321Z,14.45
2022-09-26T12:53:43.386Z,14.41
2022-09-26T12:54:43.430Z,14.49
2022-09-26T12:55:43.309Z,14.45
2022-09-26T12:56:43.367Z,14.46
2022-09-26T12:57:43.283Z,14.45
2022-09-26T12:58:43.411Z,14.53
2022-09-26T12:59:43.279Z,14.42
2022-09-26T13:00:43.307Z,14.54
2022-09-26T13:01:43.449Z,14.41
2022-09-26T13:02:43.288Z,14.21
2022-09-26T13:03:43.347Z,14.13
2022-09-26T13:04:43.217Z,14.16
2022-09-26T13:05:43.358Z,14.13
2022-09-26T13:06:52.778Z,14.13
2022-09-26T13:07:45.262Z,14.12
2022-09-26T13:08:43.321Z,14.11